Time;durP1;ratioP1;P1;durP2;ratioP2;P2;SDS_P1;SDS_P2;PMS_P1;PMS_P2;Temp;Humidity;BMP_temperature;BMP_pressure;BME280_temperature;BME280_humidity;BME280_pressure;Samples;Min_cycle;Max_cycle;Signal;HPM_P1;HPM_P2
2023/09/03 00:00:59;;;;;;;27.08;24.33;;;;;;;14.65;100.00;102325.19;5072922;28;20426;-70
2023/09/03 00:03:25;;;;;;;29.45;26.17;;;;;;;14.64;100.00;102335.03;5076198;28;20035;-70
2023/09/03 00:05:54;;;;;;;29.75;26.55;;;;;;;14.61;100.00;102329.81;5072260;28;20410;-70
2023/09/03 00:08:21;;;;;;;26.80;24.13;;;;;;;14.53;100.00;102331.09;5055079;28;20099;-71
2023/09/03 00:10:53;;;;;;;28.67;25.75;;;;;;;14.48;100.00;102333.94;5057890;28;20033;-70
2023/09/03 00:13:19;;;;;;;28.08;25.17;;;;;;;14.42;100.00;102334.19;5057730;28;20032;-70
2023/09/03 00:15:44;;;;;;;26.85;24.05;;;;;;;14.41;100.00;102332.47;5049196;28;20493;-72
2023/09/03 00:18:11;;;;;;;27.63;24.73;;;;;;;14.39;100.00;102337.88;5061007;28;20024;-71
2023/09/03 00:20:37;;;;;;;26.50;23.58;;;;;;;14.31;100.00;102329.31;5062687;28;20494;-71
2023/09/03 00:23:03;;;;;;;28.77;25.63;;;;;;;14.25;100.00;102334.03;5062998;28;20020;-70
2023/09/03 00:25:34;;;;;;;27.30;24.33;;;;;;;14.28;100.00;102324.06;5057889;28;20024;-70
2023/09/03 00:28:00;;;;;;;27.00;24.23;;;;;;;14.28;100.00;102324.06;5059956;28;20221;-71
2023/09/03 00:30:25;;;;;;;29.25;24.15;;;;;;;14.27;100.00;102327.69;5063888;28;20107;-70
2023/09/03 00:32:51;;;;;;;27.58;24.63;;;;;;;14.22;100.00;102328.84;5061025;28;20086;-70
2023/09/03 00:35:17;;;;;;;28.95;25.77;;;;;;;14.22;100.00;102331.53;5064029;28;20020;-70
2023/09/03 00:37:42;;;;;;;28.05;25.15;;;;;;;14.19;100.00;102340.53;5060385;28;20024;-71
2023/09/03 00:40:08;;;;;;;30.67;26.33;;;;;;;14.11;100.00;102340.88;5060990;28;20415;-71
2023/09/03 00:42:34;;;;;;;28.48;25.38;;;;;;;14.10;100.00;102338.25;5059222;28;20035;-71
2023/09/03 00:45:00;;;;;;;28.73;25.83;;;;;;;14.10;100.00;102338.25;5058043;28;20545;-71
2023/09/03 00:47:26;;;;;;;28.92;25.73;;;;;;;14.11;100.00;102354.25;5060168;28;20047;-71
2023/09/03 00:49:52;;;;;;;28.73;25.67;;;;;;;14.13;100.00;102354.22;5062494;28;20109;-71
2023/09/03 00:52:19;;;;;;;29.77;26.63;;;;;;;14.11;100.00;102362.28;5054978;28;20044;-71
2023/09/03 00:54:45;;;;;;;28.35;25.63;;;;;;;14.06;100.00;102364.28;5059119;28;20021;-71
2023/09/03 00:57:11;;;;;;;28.52;25.80;;;;;;;14.05;100.00;102357.19;5062454;28;20024;-71
2023/09/03 00:59:37;;;;;;;29.02;26.05;;;;;;;14.04;100.00;102359.91;5060684;28;20031;-71
2023/09/03 01:02:03;;;;;;;29.67;26.77;;;;;;;13.98;100.00;102354.84;5060305;28;20075;-71
2023/09/03 01:04:29;;;;;;;31.00;26.58;;;;;;;13.97;100.00;102355.78;5061415;28;20024;-71
2023/09/03 01:06:55;;;;;;;28.17;25.25;;;;;;;13.99;100.00;102352.06;5061026;28;20425;-70
2023/09/03 01:09:20;;;;;;;28.55;25.85;;;;;;;13.96;100.00;102360.22;5060501;28;20397;-71
2023/09/03 01:11:49;;;;;;;30.73;26.67;;;;;;;13.87;100.00;102358.78;5062754;28;20021;-72
2023/09/03 01:14:26;;;;;;;29.48;26.48;;;;;;;13.90;100.00;102373.88;5060390;28;20060;-72
2023/09/03 01:17:03;;;;;;;28.52;25.73;;;;;;;13.87;100.00;102384.69;5058660;28;20082;-71
2023/09/03 01:19:42;;;;;;;29.48;26.58;;;;;;;13.87;100.00;102385.56;5059450;28;20548;-71
2023/09/03 01:22:31;;;;;;;28.40;25.60;;;;;;;13.84;100.00;102380.34;5060219;28;20168;-70
2023/09/03 01:25:08;;;;;;;28.90;25.92;;;;;;;13.78;100.00;102377.03;5056992;28;20032;-70
2023/09/03 01:27:46;;;;;;;29.45;26.58;;;;;;;13.76;100.00;102370.91;5056828;28;20075;-70
2023/09/03 01:30:14;;;;;;;29.35;26.55;;;;;;;13.74;100.00;102362.91;5055015;28;20036;-70
2023/09/03 01:32:40;;;;;;;28.08;25.17;;;;;;;13.77;100.00;102361.94;5055146;28;20293;-70
2023/09/03 01:35:07;;;;;;;28.95;25.75;;;;;;;13.81;100.00;102361.75;5060179;28;20037;-70
2023/09/03 01:37:32;;;;;;;26.58;23.98;;;;;;;13.76;100.00;102363.72;5062049;28;20028;-70
2023/09/03 01:39:58;;;;;;;27.50;24.80;;;;;;;13.75;100.00;102364.63;5061551;28;20493;-71
2023/09/03 01:42:23;;;;;;;27.52;24.75;;;;;;;13.70;100.00;102358.59;5063623;28;20098;-71
2023/09/03 01:44:49;;;;;;;25.50;23.05;;;;;;;13.70;100.00;102356.81;5061107;28;20055;-71
2023/09/03 01:47:43;;;;;;;25.33;22.92;;;;;;;13.70;100.00;102369.31;5062762;28;20017;-70
2023/09/03 01:50:08;;;;;;;27.85;25.10;;;;;;;13.62;100.00;102366.06;5053356;28;20060;-70
2023/09/03 01:52:48;;;;;;;27.42;24.50;;;;;;;13.60;100.00;102363.47;5061083;28;20059;-70
2023/09/03 01:55:16;;;;;;;26.85;24.15;;;;;;;13.54;100.00;102352.13;5055406;28;20495;-72
2023/09/03 01:57:50;;;;;;;26.63;23.77;;;;;;;13.54;100.00;102355.66;5056492;28;20032;-71
2023/09/03 02:00:17;;;;;;;27.52;24.83;;;;;;;13.55;100.00;102345.88;5060558;28;20024;-71
2023/09/03 02:02:44;;;;;;;25.88;23.27;;;;;;;13.49;100.00;102357.66;5062220;28;20486;-71
2023/09/03 02:05:11;;;;;;;25.17;22.83;;;;;;;13.50;100.00;102363.88;5059818;28;20032;-71
2023/09/03 02:07:36;;;;;;;25.58;23.17;;;;;;;13.41;100.00;102363.28;5054800;28;20092;-71
2023/09/03 02:10:02;;;;;;;25.73;23.23;;;;;;;13.45;100.00;102367.59;5057136;28;20505;-71
2023/09/03 02:12:27;;;;;;;26.55;23.85;;;;;;;13.40;100.00;102371.38;5061092;28;20299;-71
2023/09/03 02:14:53;;;;;;;26.00;23.50;;;;;;;13.39;100.00;102373.19;5060514;28;20491;-71
2023/09/03 02:17:23;;;;;;;25.52;23.05;;;;;;;13.39;100.00;102383.03;5061869;28;20514;-71
2023/09/03 02:19:50;;;;;;;25.42;22.95;;;;;;;13.36;100.00;102385.81;5059312;28;20027;-71
2023/09/03 02:22:16;;;;;;;26.08;23.58;;;;;;;13.37;100.00;102391.09;5057699;28;20433;-71
2023/09/03 02:24:42;;;;;;;26.48;23.88;;;;;;;13.38;100.00;102391.97;5056008;28;20440;-71
2023/09/03 02:27:08;;;;;;;25.52;22.92;;;;;;;13.35;100.00;102392.97;5060664;28;20016;-71
2023/09/03 02:29:34;;;;;;;24.33;22.00;;;;;;;13.32;100.00;102392.19;5057186;28;20020;-71
2023/09/03 02:31:59;;;;;;;25.88;23.27;;;;;;;13.28;100.00;102394.09;5054014;28;20021;-71
2023/09/03 02:34:25;;;;;;;25.55;23.05;;;;;;;13.23;100.00;102401.44;5057958;28;20507;-71
2023/09/03 02:36:50;;;;;;;26.88;23.80;;;;;;;13.27;100.00;102404.88;5058751;28;20016;-71
2023/09/03 02:39:15;;;;;;;24.80;22.42;;;;;;;13.24;100.00;102403.19;5056044;28;20032;-71
2023/09/03 02:41:41;;;;;;;25.30;22.88;;;;;;;13.23;100.00;102398.75;5059461;28;20550;-71
2023/09/03 02:44:09;;;;;;;26.25;23.75;;;;;;;13.17;100.00;102404.31;5054922;28;20089;-69
2023/09/03 02:46:35;;;;;;;26.42;23.92;;;;;;;13.17;100.00;102404.31;5057483;28;20238;-69
2023/09/03 02:49:00;;;;;;;28.50;25.50;;;;;;;13.18;100.00;102403.38;5060741;28;20044;-70
2023/09/03 02:51:26;;;;;;;26.15;23.55;;;;;;;13.16;100.00;102399.88;5057593;28;20522;-70
2023/09/03 02:53:53;;;;;;;25.92;23.48;;;;;;;13.15;100.00;102395.47;5056833;28;20452;-70
2023/09/03 02:56:18;;;;;;;25.00;22.48;;;;;;;13.05;100.00;102386.94;5058714;28;20051;-70
2023/09/03 02:58:46;;;;;;;24.02;21.63;;;;;;;13.09;100.00;102385.03;5059005;28;20565;-70
2023/09/03 03:01:14;;;;;;;25.38;22.63;;;;;;;13.09;100.00;102390.38;5055618;28;20343;-70
2023/09/03 03:03:41;;;;;;;24.77;22.27;;;;;;;13.06;100.00;102404.69;5057410;28;20032;-71
2023/09/03 03:06:06;;;;;;;24.45;21.98;;;;;;;13.06;100.00;102393.16;5060987;28;20032;-72
2023/09/03 03:08:32;;;;;;;23.92;21.63;;;;;;;13.04;100.00;102387.88;5058742;28;20517;-70
2023/09/03 03:11:12;;;;;;;24.25;21.95;;;;;;;13.03;100.00;102390.56;5060197;28;20032;-71
2023/09/03 03:13:38;;;;;;;22.90;20.85;;;;;;;12.98;100.00;102392.53;5052576;28;20539;-70
2023/09/03 03:16:06;;;;;;;23.75;21.38;;;;;;;13.02;100.00;102397.72;5057763;28;20447;-70
2023/09/03 03:18:32;;;;;;;22.58;20.48;;;;;;;13.01;100.00;102405.81;5056618;28;20031;-71
2023/09/03 03:21:15;;;;;;;24.38;22.02;;;;;;;12.98;100.00;102413.94;5058666;28;20031;-70
2023/09/03 03:23:41;;;;;;;23.88;21.67;;;;;;;12.96;100.00;102409.53;5057503;28;20032;-70
2023/09/03 03:26:07;;;;;;;25.67;23.17;;;;;;;12.95;100.00;102391.72;5058719;28;20043;-70
2023/09/03 03:28:34;;;;;;;25.45;23.02;;;;;;;12.99;100.00;102386.25;5060250;28;20025;-70
2023/09/03 03:31:19;;;;;;;26.00;23.48;;;;;;;12.95;100.00;102373.00;5051629;28;20036;-70
2023/09/03 03:33:45;;;;;;;26.20;23.40;;;;;;;12.95;100.00;102367.66;5058218;28;20028;-69
2023/09/03 03:36:13;;;;;;;25.50;23.00;;;;;;;12.97;100.00;102367.63;5054587;28;20060;-69
2023/09/03 03:38:38;;;;;;;25.58;23.08;;;;;;;12.99;100.00;102364.88;5058371;28;20043;-69
2023/09/03 03:41:12;;;;;;;23.63;21.23;;;;;;;12.96;100.00;102368.56;5057254;28;20024;-69
2023/09/03 03:43:48;;;;;;;25.73;22.48;;;;;;;12.95;100.00;102366.78;5054456;28;20025;-69
2023/09/03 03:46:19;;;;;;;24.17;21.83;;;;;;;12.90;100.00;102366.09;5053076;28;20426;-70
2023/09/03 03:48:46;;;;;;;24.45;22.05;;;;;;;12.88;100.00;102386.66;5055821;28;20041;-70
2023/09/03 03:51:12;;;;;;;24.95;22.40;;;;;;;12.86;100.00;102405.41;5055996;28;20161;-70
2023/09/03 03:53:38;;;;;;;24.85;22.25;;;;;;;12.80;100.00;102405.66;5058472;28;20134;-70
2023/09/03 03:56:05;;;;;;;25.38;22.77;;;;;;;12.77;100.00;102411.09;5061355;28;20120;-70
2023/09/03 03:58:33;;;;;;;26.05;23.27;;;;;;;12.76;100.00;102408.47;5052782;28;20035;-70
2023/09/03 04:00:59;;;;;;;25.77;23.23;;;;;;;12.77;100.00;102407.53;5060673;28;20024;-70
2023/09/03 04:03:27;;;;;;;24.73;22.40;;;;;;;12.78;100.00;102402.13;5058851;28;20077;-71
2023/09/03 04:06:00;;;;;;;25.98;23.38;;;;;;;12.75;100.00;102393.34;5058316;28;20024;-70
2023/09/03 04:08:26;;;;;;;26.70;23.75;;;;;;;12.73;100.00;102390.75;5054831;28;20039;-71
2023/09/03 04:11:19;;;;;;;25.30;22.80;;;;;;;12.75;100.00;102398.69;5052164;28;20021;-70
2023/09/03 04:13:44;;;;;;;24.73;22.15;;;;;;;12.66;100.00;102416.78;5044773;28;20048;-70
2023/09/03 04:16:13;;;;;;;25.92;23.23;;;;;;;12.63;100.00;102413.38;5050001;28;20039;-70
2023/09/03 04:18:39;;;;;;;27.30;23.38;;;;;;;12.51;100.00;102414.66;5048181;28;20783;-70
2023/09/03 04:21:05;;;;;;;26.27;23.58;;;;;;;12.57;100.00;102430.47;5049521;28;20032;-71
2023/09/03 04:23:30;;;;;;;26.25;23.48;;;;;;;12.54;100.00;102429.69;5050282;28;20042;-71
2023/09/03 04:25:56;;;;;;;25.85;23.23;;;;;;;12.59;100.00;102428.63;5050039;28;20118;-71
2023/09/03 04:28:23;;;;;;;26.48;23.95;;;;;;;12.54;100.00;102424.34;5047724;28;20116;-71
2023/09/03 04:30:54;;;;;;;26.15;23.67;;;;;;;12.55;100.00;102426.13;5048060;28;20347;-71
2023/09/03 04:33:20;;;;;;;25.83;23.30;;;;;;;12.59;100.00;102425.09;5051833;28;20033;-71
2023/09/03 04:35:46;;;;;;;26.30;23.80;;;;;;;12.59;100.00;102419.75;5049429;28;20566;-71
2023/09/03 04:38:11;;;;;;;25.35;22.85;;;;;;;12.55;100.00;102428.78;5071019;28;20202;-71
2023/09/03 04:40:37;;;;;;;25.50;23.00;;;;;;;12.57;100.00;102435.81;5052905;28;20051;-71
2023/09/03 04:43:04;;;;;;;24.85;22.27;;;;;;;12.53;100.00;102435.97;5052925;28;20039;-71
2023/09/03 04:45:30;;;;;;;24.13;21.88;;;;;;;12.55;100.00;102444.81;5054109;28;20904;-71
2023/09/03 04:47:56;;;;;;;24.02;21.63;;;;;;;12.59;100.00;102449.13;5059500;28;20676;-71
2023/09/03 04:50:23;;;;;;;22.95;20.75;;;;;;;12.59;100.00;102447.34;5056156;28;20033;-69
2023/09/03 04:52:49;;;;;;;26.88;24.17;;;;;;;12.59;100.00;102446.47;5056142;28;20028;-70
2023/09/03 04:55:15;;;;;;;24.92;22.52;;;;;;;12.62;100.00;102449.00;5058289;28;20043;-69
2023/09/03 04:57:40;;;;;;;25.20;22.67;;;;;;;12.63;100.00;102461.47;5059267;28;20069;-70
2023/09/03 05:00:07;;;;;;;25.15;22.65;;;;;;;12.58;100.00;102447.38;5050916;28;20025;-69
2023/09/03 05:02:33;;;;;;;26.30;23.77;;;;;;;12.61;100.00;102445.47;5058302;28;20170;-70
2023/09/03 05:04:58;;;;;;;25.90;23.30;;;;;;;12.66;100.00;102456.00;5058126;28;20025;-69
2023/09/03 05:07:24;;;;;;;24.88;22.40;;;;;;;12.67;100.00;102468.44;5062732;28;20410;-69
2023/09/03 05:09:55;;;;;;;25.73;23.25;;;;;;;12.70;100.00;102465.66;5062623;28;20452;-69
2023/09/03 05:12:22;;;;;;;23.35;21.05;;;;;;;12.62;100.00;102468.59;5061797;28;20032;-70
2023/09/03 05:14:48;;;;;;;25.30;22.67;;;;;;;12.65;100.00;102464.94;5060191;28;20593;-70
2023/09/03 05:17:14;;;;;;;25.00;22.50;;;;;;;12.70;100.00;102473.66;5058512;28;20032;-70
2023/09/03 05:19:39;;;;;;;25.77;23.27;;;;;;;12.75;100.00;102476.19;5061883;28;20036;-70
2023/09/03 05:22:05;;;;;;;27.38;24.58;;;;;;;12.72;100.00;102479.84;5058615;28;20029;-70
2023/09/03 05:24:31;;;;;;;25.85;23.38;;;;;;;12.76;100.00;102481.50;5060869;28;20117;-70
2023/09/03 05:26:56;;;;;;;26.33;23.75;;;;;;;12.79;100.00;102484.06;5059638;28;20351;-70
2023/09/03 05:29:22;;;;;;;26.65;24.05;;;;;;;12.85;100.00;102493.66;5062834;28;20437;-69
2023/09/03 05:31:48;;;;;;;25.83;23.40;;;;;;;12.87;100.00;102476.63;5057560;28;20035;-70
2023/09/03 05:34:13;;;;;;;25.33;22.80;;;;;;;12.89;100.00;102479.25;5062426;28;20029;-69
2023/09/03 05:36:39;;;;;;;24.45;22.15;;;;;;;12.94;100.00;102482.66;5059760;28;20111;-70
2023/09/03 05:39:04;;;;;;;26.08;23.42;;;;;;;12.94;100.00;102475.50;5053194;28;20025;-70
2023/09/03 05:41:31;;;;;;;27.15;24.45;;;;;;;12.95;100.00;102476.38;5056396;28;20453;-70
2023/09/03 05:43:57;;;;;;;27.88;25.08;;;;;;;12.95;100.00;102479.91;5062148;28;20051;-70
2023/09/03 05:46:23;;;;;;;27.75;25.13;;;;;;;13.00;100.00;102481.56;5057990;28;20024;-71
2023/09/03 05:48:50;;;;;;;28.08;25.17;;;;;;;13.06;100.00;102487.56;5060101;28;20056;-70
2023/09/03 05:51:15;;;;;;;26.83;24.13;;;;;;;13.14;100.00;102484.63;5057563;28;20020;-70
2023/09/03 05:53:40;;;;;;;27.88;24.95;;;;;;;13.16;100.00;102488.09;5054248;28;20463;-70
2023/09/03 05:56:08;;;;;;;27.75;24.92;;;;;;;13.18;100.00;102488.94;5060029;28;20028;-70
2023/09/03 05:58:33;;;;;;;26.58;24.00;;;;;;;13.28;100.00;102486.84;5058361;28;20090;-69
2023/09/03 06:01:06;;;;;;;26.67;24.13;;;;;;;13.28;100.00;102490.38;5054918;28;20109;-71
2023/09/03 06:03:32;;;;;;;26.75;24.23;;;;;;;13.44;100.00;102502.25;5057927;28;20505;-71
2023/09/03 06:06:07;;;;;;;26.95;24.20;;;;;;;13.50;100.00;102511.00;5060392;28;20025;-71
2023/09/03 06:08:35;;;;;;;27.17;24.73;;;;;;;13.54;100.00;102516.16;5059182;28;20354;-72
2023/09/03 06:11:01;;;;;;;26.88;24.27;;;;;;;13.61;100.00;102515.03;5058518;28;20059;-71
2023/09/03 06:13:27;;;;;;;27.15;24.70;;;;;;;13.60;100.00;102528.47;5058787;28;20021;-71
2023/09/03 06:15:56;;;;;;;26.88;24.25;;;;;;;13.66;100.00;102529.09;5057066;28;20037;-72
2023/09/03 06:18:23;;;;;;;25.67;23.38;;;;;;;13.72;100.00;102520.00;5052778;28;20390;-72
2023/09/03 06:20:49;;;;;;;27.30;24.70;;;;;;;13.79;100.00;102523.28;5054931;28;20541;-71
2023/09/03 06:23:18;;;;;;;26.70;24.20;;;;;;;13.84;100.00;102524.00;5057956;28;20151;-71
2023/09/03 06:25:46;;;;;;;27.73;25.00;;;;;;;13.88;100.00;102529.19;5056441;28;20024;-71
2023/09/03 06:28:11;;;;;;;26.73;24.23;;;;;;;13.88;100.00;102537.22;5057817;28;20360;-72
2023/09/03 06:30:36;;;;;;;27.48;24.70;;;;;;;13.99;100.00;102539.47;5055585;28;20083;-71
2023/09/03 06:33:02;;;;;;;28.73;25.98;;;;;;;14.03;100.00;102549.13;5055394;28;20028;-71
2023/09/03 06:35:28;;;;;;;27.13;24.58;;;;;;;14.11;100.00;102549.72;5054607;28;20033;-71
2023/09/03 06:37:55;;;;;;;27.08;24.50;;;;;;;14.11;100.00;102560.44;5052625;28;20071;-71
2023/09/03 06:40:21;;;;;;;26.58;24.08;;;;;;;14.26;100.00;102561.66;5058727;28;20024;-71
2023/09/03 06:42:46;;;;;;;26.85;24.25;;;;;;;14.36;100.00;102568.38;5058935;28;20477;-71
2023/09/03 06:45:11;;;;;;;25.65;23.15;;;;;;;14.39;100.00;102565.59;5060196;28;20385;-72
2023/09/03 06:47:38;;;;;;;26.42;23.92;;;;;;;14.53;100.00;102565.06;5052980;28;20020;-71
2023/09/03 06:50:05;;;;;;;25.50;23.05;;;;;;;14.58;100.00;102576.47;5054495;28;20456;-72
2023/09/03 06:52:31;;;;;;;27.52;23.33;;;;;;;14.63;100.00;102573.59;5052179;28;20032;-72
2023/09/03 06:54:56;;;;;;;25.42;22.92;;;;;;;14.70;100.00;102567.94;5052350;28;20040;-71
2023/09/03 06:57:24;;;;;;;24.05;21.83;;;;;;;14.72;100.00;102578.59;5063820;28;20043;-70
2023/09/03 06:59:50;;;;;;;26.13;23.77;;;;;;;14.76;100.00;102579.34;5057616;28;20036;-70
2023/09/03 07:02:15;;;;;;;25.25;22.95;;;;;;;14.84;100.00;102583.47;5061635;28;20032;-71
2023/09/03 07:04:40;;;;;;;25.58;23.25;;;;;;;14.93;100.00;102582.22;5055353;28;20278;-71
2023/09/03 07:07:06;;;;;;;25.55;23.08;;;;;;;15.10;100.00;102587.75;5057522;28;20414;-72
2023/09/03 07:09:32;;;;;;;24.85;22.40;;;;;;;15.29;100.00;102579.75;5058409;28;20069;-72
2023/09/03 07:11:59;;;;;;;25.10;22.60;;;;;;;15.54;100.00;102586.75;5054990;28;20408;-74
2023/09/03 07:14:25;;;;;;;24.00;21.60;;;;;;;15.78;100.00;102584.81;5052931;28;20040;-74
2023/09/03 07:16:51;;;;;;;23.48;21.38;;;;;;;16.10;100.00;102591.41;5056544;28;20038;-72
2023/09/03 07:19:16;;;;;;;23.08;20.88;;;;;;;16.27;100.00;102598.69;5056537;28;20118;-72
2023/09/03 07:21:42;;;;;;;23.02;20.85;;;;;;;16.66;100.00;102599.47;5057459;28;20922;-72
2023/09/03 07:24:07;;;;;;;21.83;19.83;;;;;;;17.01;100.00;102602.25;5060529;28;20082;-71
2023/09/03 07:26:32;;;;;;;22.40;20.33;;;;;;;17.38;100.00;102605.78;5058232;28;20027;-71
2023/09/03 07:28:58;;;;;;;22.33;20.30;;;;;;;17.67;100.00;102612.34;5058657;28;20101;-71
2023/09/03 07:31:23;;;;;;;21.85;19.85;;;;;;;17.93;100.00;102616.34;5054724;28;20025;-71
2023/09/03 07:33:49;;;;;;;20.88;18.85;;;;;;;18.24;100.00;102620.97;5053186;28;20035;-70
2023/09/03 07:36:14;;;;;;;22.70;20.50;;;;;;;18.46;100.00;102611.69;5056703;28;20021;-71
2023/09/03 07:38:43;;;;;;;21.08;19.02;;;;;;;18.61;100.00;102619.78;5052599;28;20025;-71
2023/09/03 07:41:08;;;;;;;20.67;18.75;;;;;;;18.97;100.00;102620.47;5050250;28;20358;-71
2023/09/03 07:43:34;;;;;;;19.70;17.83;;;;;;;19.34;100.00;102613.78;5054113;28;20696;-71
2023/09/03 07:46:00;;;;;;;19.80;17.90;;;;;;;19.75;98.83;102607.75;5052813;28;20089;-71
2023/09/03 07:48:25;;;;;;;20.17;18.25;;;;;;;20.09;96.14;102625.41;5056016;28;20049;-70
2023/09/03 07:50:52;;;;;;;18.80;16.88;;;;;;;20.24;95.70;102629.00;5061482;28;20526;-70
2023/09/03 07:53:17;;;;;;;18.80;17.05;;;;;;;20.79;93.72;102620.91;5052076;28;20035;-70
2023/09/03 07:55:43;;;;;;;17.48;15.88;;;;;;;21.17;89.96;102619.31;5060063;28;20040;-70
2023/09/03 07:58:09;;;;;;;18.35;16.67;;;;;;;21.37;87.57;102633.28;5060130;28;20036;-70
2023/09/03 08:00:34;;;;;;;17.20;15.70;;;;;;;21.47;87.89;102621.81;5050349;28;20486;-70
2023/09/03 08:03:00;;;;;;;18.75;15.88;;;;;;;21.67;86.19;102628.56;5054658;28;20044;-70
2023/09/03 08:05:26;;;;;;;17.00;15.50;;;;;;;21.81;85.12;102623.88;5060288;28;20031;-71
2023/09/03 08:07:52;;;;;;;16.10;14.65;;;;;;;21.73;83.88;102614.56;5055654;28;20391;-71
2023/09/03 08:10:17;;;;;;;18.02;16.42;;;;;;;21.87;82.87;102622.63;5052485;28;20035;-71
2023/09/03 08:12:42;;;;;;;18.15;16.40;;;;;;;22.35;83.11;102617.38;5055743;28;20350;-69
2023/09/03 08:15:08;;;;;;;16.25;14.75;;;;;;;22.72;79.64;102622.81;5061140;28;20106;-70
2023/09/03 08:17:34;;;;;;;16.08;14.68;;;;;;;22.99;80.18;102623.50;5050907;28;20032;-71
2023/09/03 08:19:59;;;;;;;15.82;14.27;;;;;;;23.24;76.88;102630.66;5060584;28;20436;-70
2023/09/03 08:22:24;;;;;;;16.38;14.77;;;;;;;23.19;78.23;102624.69;5059496;28;20025;-70
2023/09/03 08:24:50;;;;;;;15.60;14.10;;;;;;;23.26;78.22;102620.53;5055965;28;20026;-71
2023/09/03 08:27:15;;;;;;;15.00;13.60;;;;;;;23.40;76.08;102621.31;5056635;28;20554;-71
2023/09/03 08:29:41;;;;;;;14.48;13.07;;;;;;;23.93;74.96;102625.28;5058853;28;20402;-71
2023/09/03 08:32:07;;;;;;;14.10;12.70;;;;;;;24.43;72.77;102620.38;5058886;28;20031;-70
2023/09/03 08:34:32;;;;;;;15.70;13.82;;;;;;;24.83;69.22;102615.25;5056539;28;20143;-70
2023/09/03 08:36:57;;;;;;;14.02;12.55;;;;;;;25.28;69.39;102623.25;5054505;28;20098;-70
2023/09/03 08:39:23;;;;;;;13.35;11.90;;;;;;;25.81;66.09;102639.59;5054464;28;20032;-71
2023/09/03 08:41:50;;;;;;;13.93;12.73;;;;;;;26.10;63.96;102633.44;5062850;28;20094;-71
2023/09/03 08:44:33;;;;;;;12.70;11.50;;;;;;;26.50;62.36;102638.06;5059925;28;20029;-70
2023/09/03 08:47:01;;;;;;;15.48;12.55;;;;;;;26.62;63.00;102634.22;5076682;28;20036;-70
2023/09/03 08:49:31;;;;;;;14.18;12.52;;;;;;;26.62;59.32;102636.94;5062477;28;20092;-70
2023/09/03 08:51:59;;;;;;;14.85;13.55;;;;;;;26.97;59.00;102630.13;5053560;28;20102;-70
2023/09/03 08:54:25;;;;;;;13.98;12.68;;;;;;;27.27;56.75;102626.44;5054152;28;20029;-71
2023/09/03 08:56:50;;;;;;;13.52;12.15;;;;;;;27.64;55.91;102626.53;5059680;28;20543;-71
2023/09/03 08:59:16;;;;;;;13.23;11.93;;;;;;;27.98;54.62;102631.50;5054768;28;20120;-70
2023/09/03 09:01:44;;;;;;;12.43;11.23;;;;;;;28.88;55.57;102628.03;5063181;28;20031;-69
2023/09/03 09:04:11;;;;;;;13.07;11.55;;;;;;;29.13;51.91;102620.94;5063032;28;20040;-69
2023/09/03 09:06:39;;;;;;;12.40;11.27;;;;;;;29.26;50.55;102628.75;5057764;28;20044;-70
2023/09/03 09:09:06;;;;;;;12.70;11.50;;;;;;;29.42;49.69;102630.78;5055032;28;20040;-70
2023/09/03 09:11:37;;;;;;;12.68;11.48;;;;;;;29.58;50.34;102630.94;5054940;28;20459;-70
2023/09/03 09:14:33;;;;;;;13.82;11.40;;;;;;;30.06;50.24;102646.03;5056197;28;20034;-70
2023/09/03 09:16:59;;;;;;;12.27;10.80;;;;;;;30.42;46.00;102646.75;5036618;28;20036;-70
2023/09/03 09:19:24;;;;;;;12.57;11.45;;;;;;;30.08;45.63;102638.47;5056940;28;20401;-68
2023/09/03 09:21:51;;;;;;;12.68;11.38;;;;;;;30.30;46.81;102638.97;5052458;28;20104;-68
2023/09/03 09:24:16;;;;;;;13.27;11.00;;;;;;;30.10;45.52;102630.97;5058060;28;20430;-69
2023/09/03 09:26:41;;;;;;;10.63;9.63;;;;;;;30.59;44.97;102636.66;5062851;28;20478;-69
2023/09/03 09:29:07;;;;;;;10.45;9.45;;;;;;;31.01;46.10;102642.13;5056192;28;20459;-68
2023/09/03 09:31:34;;;;;;;11.55;10.40;;;;;;;30.91;42.73;102640.56;5058048;28;20458;-68
2023/09/03 09:34:12;;;;;;;10.93;9.82;;;;;;;30.72;45.26;102645.31;5065907;28;20033;-68
2023/09/03 09:36:38;;;;;;;11.63;9.10;;;;;;;30.61;42.62;102644.75;5053205;28;20020;-68
2023/09/03 09:39:06;;;;;;;10.82;9.73;;;;;;;30.27;43.15;102641.03;5057544;28;20030;-69
2023/09/03 09:41:37;;;;;;;11.23;9.45;;;;;;;30.33;43.12;102634.00;5062416;28;20027;-69
2023/09/03 09:44:07;;;;;;;9.57;8.68;;;;;;;30.00;44.45;102632.94;5062843;28;20067;-68
2023/09/03 09:46:33;;;;;;;10.30;9.30;;;;;;;30.19;44.22;102634.63;5053057;28;20226;-69
2023/09/03 09:49:00;;;;;;;9.80;8.88;;;;;;;31.05;43.33;102623.41;5060220;28;20118;-69
2023/09/03 09:51:27;;;;;;;7.07;6.47;;;;;;;31.22;39.84;102622.38;5060083;28;20025;-70
2023/09/03 09:53:55;;;;;;;8.05;7.25;;;;;;;31.14;39.81;102619.63;5062502;28;20280;-70
2023/09/03 09:56:24;;;;;;;7.90;7.10;;;;;;;30.77;40.43;102622.84;5057274;28;20028;-69
2023/09/03 09:58:50;;;;;;;7.95;6.97;;;;;;;30.32;39.94;102615.81;5059125;28;20025;-69
2023/09/03 10:01:16;;;;;;;6.80;6.20;;;;;;;29.69;43.64;102621.59;5061454;28;20542;-69
2023/09/03 10:03:46;;;;;;;8.93;7.40;;;;;;;28.97;43.43;102618.91;5059757;28;20101;-69
2023/09/03 10:06:17;;;;;;;8.15;7.38;;;;;;;29.06;44.90;102616.25;5058304;28;20020;-69
2023/09/03 10:08:47;;;;;;;7.75;6.68;;;;;;;29.39;45.88;102614.66;5056507;28;20035;-69
2023/09/03 10:11:12;;;;;;;9.18;7.93;;;;;;;29.65;43.42;102623.81;5050998;28;20017;-70
2023/09/03 10:13:42;;;;;;;8.40;7.60;;;;;;;29.68;42.96;102618.00;5059268;28;20024;-69
2023/09/03 10:16:09;;;;;;;8.80;7.93;;;;;;;28.91;44.13;102616.75;5059066;28;20036;-69
2023/09/03 10:18:48;;;;;;;9.50;8.50;;;;;;;28.90;46.32;102611.44;5059105;28;20263;-69
2023/09/03 10:21:20;;;;;;;7.90;7.13;;;;;;;29.02;46.17;102615.72;5058654;28;20020;-69
2023/09/03 10:23:48;;;;;;;8.77;7.90;;;;;;;29.22;43.65;102614.53;5057757;28;20025;-68
2023/09/03 10:26:19;;;;;;;8.52;7.72;;;;;;;29.77;43.66;102618.91;5057251;28;20032;-69
2023/09/03 10:28:46;;;;;;;9.00;7.38;;;;;;;30.68;42.08;102619.19;5059001;28;20020;-69
2023/09/03 10:31:14;;;;;;;7.35;6.65;;;;;;;30.70;40.37;102624.50;5062482;28;20019;-69
2023/09/03 10:33:41;;;;;;;7.55;6.80;;;;;;;30.17;40.93;102625.69;5061287;28;20029;-68
2023/09/03 10:36:13;;;;;;;9.00;6.90;;;;;;;30.27;42.65;102627.28;5060131;28;20467;-69
2023/09/03 10:38:39;;;;;;;;;;;;;;;31.44;41.05;102626.38;5052973;28;20037;-69
2023/09/03 10:41:16;;;;;;;7.53;6.63;;;;;;;30.93;41.35;102624.75;5057746;28;20027;-69
2023/09/03 10:43:41;;;;;;;8.10;7.18;;;;;;;31.56;40.00;102621.41;5058453;28;20406;-70
2023/09/03 10:46:07;;;;;;;7.10;5.90;;;;;;;31.81;36.63;102615.81;5058641;28;20031;-69
2023/09/03 10:48:36;;;;;;;6.30;5.20;;;;;;;32.65;35.23;102620.72;5061516;28;20069;-69
2023/09/03 10:51:02;;;;;;;6.95;5.43;;;;;;;33.29;35.43;102614.09;5059903;28;20067;-70
2023/09/03 10:53:37;;;;;;;6.85;4.95;;;;;;;33.46;35.45;102616.53;5048428;28;20063;-69
2023/09/03 10:56:20;;;;;;;6.63;5.93;;;;;;;33.81;35.57;102622.38;5061950;28;20075;-69
2023/09/03 10:58:59;;;;;;;7.25;6.55;;;;;;;33.31;35.82;102615.59;5059336;28;20024;-69
2023/09/03 11:01:26;;;;;;;6.90;6.30;;;;;;;33.30;34.47;102615.78;5060386;28;20047;-70
2023/09/03 11:03:53;;;;;;;5.78;5.05;;;;;;;33.16;33.10;102620.22;5056570;28;20169;-69
2023/09/03 11:06:21;;;;;;;5.93;5.10;;;;;;;33.15;34.82;102619.38;5056178;28;20020;-70
2023/09/03 11:08:47;;;;;;;6.30;5.70;;;;;;;33.25;34.70;102616.34;5053788;28;20330;-69